AAL3067 KCLT-KGSO
Flight info
| Callsign | AAL3067 |
|---|---|
| Flight time | 0h 24m |
| Altitude | 15000 |
| Route | CLT3 GANTS |
| Aircraft | A320/M-SDE3FGHIRWY/LB1 |
Departure
| Time | 2026-04-20 17:01 |
|---|---|
| Airport | Charlotte Douglas International Airport (KCLT) |
Arrival
| Time | 2026-04-20 17:26 |
|---|---|
| Airport | Piedmont Triad International Airport (KGSO) |
| Time | Latitude | Longitude | Altitude | Speed | Heading |
|---|---|---|---|---|---|
| 2026-04-20 16:31 | 35.21985 | -80.94698 | 733 ft | 0 kts | 19° |
| 2026-04-20 16:52 | 35.21964 | -80.94704 | 730 ft | 4 kts | 358° |
| 2026-04-20 16:52 | 35.21943 | -80.94704 | 730 ft | 4 kts | 13° |
| 2026-04-20 16:52 | 35.21921 | -80.94719 | 731 ft | 4 kts | 46° |
| 2026-04-20 16:53 | 35.21909 | -80.94733 | 732 ft | 0 kts | 44° |
| 2026-04-20 16:55 | 35.21909 | -80.94728 | 732 ft | 1 kts | 88° |
| 2026-04-20 16:56 | 35.21885 | -80.94723 | 732 ft | 7 kts | 189° |
| 2026-04-20 16:56 | 35.21822 | -80.94745 | 732 ft | 11 kts | 183° |
| 2026-04-20 16:56 | 35.21733 | -80.94738 | 732 ft | 14 kts | 177° |
| 2026-04-20 16:56 | 35.21638 | -80.94727 | 732 ft | 11 kts | 159° |
| 2026-04-20 16:57 | 35.21621 | -80.94637 | 732 ft | 13 kts | 85° |
| 2026-04-20 16:57 | 35.21627 | -80.94517 | 732 ft | 15 kts | 86° |
| 2026-04-20 16:57 | 35.21665 | -80.94388 | 732 ft | 17 kts | 59° |
| 2026-04-20 16:57 | 35.21669 | -80.94261 | 732 ft | 16 kts | 97° |
| 2026-04-20 16:58 | 35.21681 | -80.94117 | 732 ft | 18 kts | 62° |
| 2026-04-20 16:58 | 35.21770 | -80.93992 | 731 ft | 21 kts | 48° |
| 2026-04-20 16:58 | 35.21874 | -80.93849 | 732 ft | 24 kts | 48° |
| 2026-04-20 16:58 | 35.21960 | -80.93732 | 733 ft | 13 kts | 49° |
| 2026-04-20 16:59 | 35.22052 | -80.93717 | 733 ft | 15 kts | 355° |
| 2026-04-20 16:59 | 35.22167 | -80.93726 | 733 ft | 18 kts | 356° |
| 2026-04-20 16:59 | 35.22302 | -80.93739 | 733 ft | 21 kts | 355° |
| 2026-04-20 16:59 | 35.22425 | -80.93749 | 733 ft | 13 kts | 356° |
| 2026-04-20 17:00 | 35.22504 | -80.93643 | 736 ft | 11 kts | 107° |
| 2026-04-20 17:00 | 35.22440 | -80.93616 | 736 ft | 7 kts | 175° |
| 2026-04-20 17:00 | 35.22431 | -80.93615 | 736 ft | 3 kts | 175° |
| 2026-04-20 17:01 | 35.22226 | -80.93598 | 736 ft | 67 kts | 176° |
| 2026-04-20 17:01 | 35.21528 | -80.93537 | 736 ft | 131 kts | 176° |
| 2026-04-20 17:01 | 35.20468 | -80.93450 | 895 ft | 162 kts | 173° |
| 2026-04-20 17:01 | 35.19360 | -80.93335 | 1602 ft | 160 kts | 178° |
| 2026-04-20 17:02 | 35.18246 | -80.93208 | 2339 ft | 161 kts | 181° |
| 2026-04-20 17:02 | 35.17091 | -80.93091 | 2812 ft | 178 kts | 183° |
| 2026-04-20 17:02 | 35.15774 | -80.92970 | 3100 ft | 200 kts | 181° |
| 2026-04-20 17:02 | 35.14323 | -80.92816 | 3413 ft | 225 kts | 179° |
| 2026-04-20 17:03 | 35.12676 | -80.92631 | 3877 ft | 250 kts | 178° |
| 2026-04-20 17:03 | 35.10871 | -80.92429 | 4558 ft | 268 kts | 178° |
| 2026-04-20 17:03 | 35.09000 | -80.92102 | 5443 ft | 278 kts | 166° |
| 2026-04-20 17:03 | 35.07280 | -80.90943 | 6306 ft | 291 kts | 137° |
| 2026-04-20 17:04 | 35.06130 | -80.88896 | 7143 ft | 297 kts | 107° |
| 2026-04-20 17:04 | 35.05875 | -80.86424 | 7967 ft | 294 kts | 77° |
| 2026-04-20 17:04 | 35.06543 | -80.84119 | 8821 ft | 287 kts | 51° |
| 2026-04-20 17:04 | 35.07634 | -80.82074 | 9753 ft | 289 kts | 49° |
| 2026-04-20 17:05 | 35.08759 | -80.79991 | 10415 ft | 303 kts | 49° |
| 2026-04-20 17:05 | 35.09968 | -80.77760 | 10707 ft | 327 kts | 50° |
| 2026-04-20 17:05 | 35.11261 | -80.75360 | 10932 ft | 350 kts | 50° |
| 2026-04-20 17:05 | 35.12612 | -80.72823 | 11439 ft | 362 kts | 51° |
| 2026-04-20 17:06 | 35.13989 | -80.70211 | 12082 ft | 368 kts | 52° |
| 2026-04-20 17:06 | 35.15380 | -80.67558 | 12793 ft | 373 kts | 52° |
| 2026-04-20 17:06 | 35.16790 | -80.64868 | 13475 ft | 379 kts | 52° |
| 2026-04-20 17:06 | 35.18225 | -80.62135 | 14127 ft | 385 kts | 52° |
| 2026-04-20 17:07 | 35.19684 | -80.59365 | 14721 ft | 390 kts | 52° |
| 2026-04-20 17:07 | 35.21161 | -80.56566 | 14983 ft | 393 kts | 52° |
| 2026-04-20 17:07 | 35.22659 | -80.53731 | 15062 ft | 406 kts | 52° |
| 2026-04-20 17:07 | 35.24238 | -80.50757 | 15061 ft | 428 kts | 53° |
| 2026-04-20 17:08 | 35.25877 | -80.47662 | 15066 ft | 437 kts | 53° |
| 2026-04-20 17:08 | 35.27528 | -80.44521 | 15060 ft | 440 kts | 53° |
| 2026-04-20 17:08 | 35.29176 | -80.41370 | 15060 ft | 440 kts | 53° |
| 2026-04-20 17:08 | 35.30824 | -80.38208 | 15066 ft | 441 kts | 53° |
| 2026-04-20 17:09 | 35.32472 | -80.35049 | 15065 ft | 440 kts | 53° |
| 2026-04-20 17:09 | 35.34126 | -80.31888 | 15070 ft | 440 kts | 53° |
| 2026-04-20 17:09 | 35.35780 | -80.28734 | 15071 ft | 440 kts | 53° |
| 2026-04-20 17:09 | 35.37433 | -80.25579 | 15080 ft | 439 kts | 53° |
| 2026-04-20 17:10 | 35.39055 | -80.22474 | 15071 ft | 438 kts | 53° |
| 2026-04-20 17:10 | 35.40692 | -80.19332 | 15072 ft | 437 kts | 53° |
| 2026-04-20 17:10 | 35.42327 | -80.16191 | 15080 ft | 437 kts | 53° |
| 2026-04-20 17:10 | 35.44140 | -80.13215 | 15069 ft | 433 kts | 44° |
| 2026-04-20 17:11 | 35.46304 | -80.10682 | 15066 ft | 428 kts | 34° |
| 2026-04-20 17:11 | 35.48748 | -80.08645 | 15067 ft | 423 kts | 24° |
| 2026-04-20 17:11 | 35.51382 | -80.07082 | 15063 ft | 419 kts | 19° |
| 2026-04-20 17:11 | 35.54044 | -80.05615 | 15059 ft | 420 kts | 19° |
| 2026-04-20 17:12 | 35.56706 | -80.04138 | 15040 ft | 420 kts | 19° |
| 2026-04-20 17:12 | 35.59371 | -80.02652 | 15045 ft | 421 kts | 19° |
| 2026-04-20 17:12 | 35.62033 | -80.01163 | 15050 ft | 420 kts | 19° |
| 2026-04-20 17:12 | 35.64695 | -79.99673 | 15053 ft | 420 kts | 19° |
| 2026-04-20 17:13 | 35.66431 | -79.98698 | 14946 ft | 409 kts | 19° |
| 2026-04-20 17:13 | 35.68974 | -79.97267 | 14691 ft | 396 kts | 19° |
| 2026-04-20 17:13 | 35.71471 | -79.95866 | 14447 ft | 393 kts | 19° |
| 2026-04-20 17:13 | 35.73956 | -79.94477 | 14207 ft | 391 kts | 19° |
| 2026-04-20 17:14 | 35.76422 | -79.93100 | 13739 ft | 387 kts | 19° |
| 2026-04-20 17:14 | 35.78863 | -79.91735 | 13065 ft | 382 kts | 19° |
| 2026-04-20 17:14 | 35.81264 | -79.90391 | 12390 ft | 377 kts | 19° |
| 2026-04-20 17:14 | 35.83637 | -79.89060 | 11707 ft | 372 kts | 18° |
| 2026-04-20 17:15 | 35.85948 | -79.87758 | 11054 ft | 357 kts | 18° |
| 2026-04-20 17:15 | 35.88144 | -79.86514 | 10904 ft | 338 kts | 18° |
| 2026-04-20 17:15 | 35.90225 | -79.85334 | 10770 ft | 322 kts | 18° |
| 2026-04-20 17:15 | 35.92215 | -79.84209 | 10652 ft | 307 kts | 17° |
| 2026-04-20 17:16 | 35.94117 | -79.83139 | 10527 ft | 294 kts | 17° |
| 2026-04-20 17:16 | 35.95942 | -79.82113 | 10405 ft | 283 kts | 17° |
| 2026-04-20 17:16 | 35.97712 | -79.81120 | 10212 ft | 276 kts | 16° |
| 2026-04-20 17:16 | 35.99450 | -79.80149 | 9946 ft | 272 kts | 16° |
| 2026-04-20 17:17 | 36.01163 | -79.79193 | 9739 ft | 270 kts | 17° |
| 2026-04-20 17:17 | 36.02873 | -79.78238 | 9365 ft | 270 kts | 17° |
| 2026-04-20 17:17 | 36.04582 | -79.77284 | 8977 ft | 270 kts | 18° |
| 2026-04-20 17:17 | 36.06292 | -79.76325 | 8604 ft | 270 kts | 18° |
| 2026-04-20 17:18 | 36.07985 | -79.75371 | 8195 ft | 273 kts | 19° |
| 2026-04-20 17:18 | 36.11442 | -79.73413 | 7474 ft | 273 kts | 19° |
| 2026-04-20 17:18 | 36.13154 | -79.72443 | 7292 ft | 266 kts | 19° |
| 2026-04-20 17:19 | 36.14815 | -79.71499 | 7171 ft | 260 kts | 19° |
| 2026-04-20 17:19 | 36.16435 | -79.70578 | 7042 ft | 252 kts | 19° |
| 2026-04-20 17:19 | 36.18050 | -79.69932 | 6917 ft | 235 kts | 0° |
| 2026-04-20 17:19 | 36.19597 | -79.70022 | 6661 ft | 215 kts | 341° |
| 2026-04-20 17:20 | 36.20942 | -79.70723 | 6191 ft | 207 kts | 322° |
| 2026-04-20 17:20 | 36.22018 | -79.71876 | 5712 ft | 204 kts | 313° |
| 2026-04-20 17:20 | 36.23037 | -79.73103 | 5256 ft | 204 kts | 313° |
| 2026-04-20 17:20 | 36.24050 | -79.74317 | 4807 ft | 202 kts | 312° |
| 2026-04-20 17:21 | 36.24701 | -79.75812 | 4500 ft | 199 kts | 275° |
| 2026-04-20 17:21 | 36.24354 | -79.77423 | 4344 ft | 200 kts | 237° |
| 2026-04-20 17:21 | 36.23405 | -79.78692 | 4111 ft | 201 kts | 230° |
| 2026-04-20 17:21 | 36.22436 | -79.79919 | 3862 ft | 198 kts | 232° |
| 2026-04-20 17:22 | 36.21479 | -79.81135 | 3591 ft | 194 kts | 232° |
| 2026-04-20 17:22 | 36.20558 | -79.82306 | 3363 ft | 188 kts | 231° |
| 2026-04-20 17:22 | 36.19662 | -79.83457 | 3125 ft | 183 kts | 231° |
| 2026-04-20 17:22 | 36.18804 | -79.84555 | 2867 ft | 170 kts | 232° |
| 2026-04-20 17:23 | 36.18023 | -79.85561 | 2645 ft | 153 kts | 232° |
| 2026-04-20 17:23 | 36.17314 | -79.86470 | 2458 ft | 141 kts | 232° |
| 2026-04-20 17:23 | 36.16650 | -79.87322 | 2292 ft | 134 kts | 235° |
| 2026-04-20 17:23 | 36.15984 | -79.88169 | 2109 ft | 139 kts | 233° |
| 2026-04-20 17:24 | 36.15324 | -79.89011 | 1926 ft | 134 kts | 234° |
| 2026-04-20 17:24 | 36.14686 | -79.89829 | 1740 ft | 130 kts | 234° |
| 2026-04-20 17:24 | 36.14067 | -79.90637 | 1551 ft | 133 kts | 230° |
| 2026-04-20 17:24 | 36.13429 | -79.91467 | 1412 ft | 134 kts | 232° |
| 2026-04-20 17:25 | 36.12767 | -79.92285 | 1240 ft | 135 kts | 230° |
| 2026-04-20 17:25 | 36.12115 | -79.93131 | 1081 ft | 140 kts | 227° |
| 2026-04-20 17:25 | 36.11437 | -79.93986 | 929 ft | 138 kts | 227° |
| 2026-04-20 17:25 | 36.10860 | -79.94718 | 926 ft | 89 kts | 225° |
| 2026-04-20 17:26 | 36.10570 | -79.95085 | 931 ft | 41 kts | 226° |
| 2026-04-20 17:26 | 36.10410 | -79.95241 | 937 ft | 25 kts | 200° |
| 2026-04-20 17:26 | 36.10253 | -79.95282 | 940 ft | 20 kts | 168° |
| 2026-04-20 17:26 | 36.10144 | -79.95172 | 943 ft | 21 kts | 134° |
| 2026-04-20 17:27 | 36.10034 | -79.95038 | 944 ft | 25 kts | 135° |
| 2026-04-20 17:27 | 36.09896 | -79.94871 | 937 ft | 28 kts | 135° |
| 2026-04-20 17:27 | 36.09764 | -79.94710 | 929 ft | 27 kts | 135° |
| 2026-04-20 17:27 | 36.09632 | -79.94547 | 922 ft | 24 kts | 135° |
| 2026-04-20 17:28 | 36.09519 | -79.94409 | 912 ft | 17 kts | 135° |
| 2026-04-20 17:28 | 36.09486 | -79.94300 | 912 ft | 16 kts | 57° |
| 2026-04-20 17:28 | 36.09567 | -79.94196 | 910 ft | 18 kts | 46° |
| 2026-04-20 17:28 | 36.09657 | -79.94082 | 912 ft | 19 kts | 45° |
| 2026-04-20 17:29 | 36.09747 | -79.93967 | 918 ft | 18 kts | 46° |
| 2026-04-20 17:29 | 36.09840 | -79.93849 | 917 ft | 20 kts | 46° |
| 2026-04-20 17:29 | 36.09937 | -79.93724 | 919 ft | 20 kts | 46° |
| 2026-04-20 17:29 | 36.10034 | -79.93600 | 923 ft | 20 kts | 45° |
| 2026-04-20 17:30 | 36.10101 | -79.93521 | 924 ft | 11 kts | 28° |
| 2026-04-20 17:30 | 36.10167 | -79.93558 | 926 ft | 13 kts | 315° |
| 2026-04-20 17:30 | 36.10236 | -79.93641 | 925 ft | 15 kts | 316° |
| 2026-04-20 17:30 | 36.10299 | -79.93715 | 927 ft | 7 kts | 316° |
| 2026-04-20 17:31 | 36.10324 | -79.93741 | 925 ft | 5 kts | 326° |
| 2026-04-20 17:31 | 36.10349 | -79.93743 | 923 ft | 3 kts | 27° |
| 2026-04-20 17:31 | 36.10360 | -79.93730 | 929 ft | 0 kts | 45° |
| 2026-04-20 17:33 | 36.10361 | -79.93730 | 929 ft | 0 kts | 45° |